This is the latest recevied weather packets stored in our database for station/object HA2SKA-1. If no packets are shown the sender has not sent any weather packets the latest 10 day(s).
| Time | Temp. | Humidity | Pressure | Rain* | Wind** | Luminosity | Snow |
|---|---|---|---|---|---|---|---|
| 1788619808 | 23.89° C | 100% | 1022.3 hPa | - | - | - | - |
| 1788618016 | 23.33° C | 100% | 1022.3 hPa | - | - | - | - |
| 1788617116 | 24.44° C | 100% | 1022.1 hPa | - | - | - | - |
| 1788616215 | 23.33° C | 100% | 1021.8 hPa | - | - | - | - |
| 1788615315 | 25.56° C | 100% | 1021.5 hPa | - | - | - | - |
| 1788614415 | 26.11° C | 98% | 1021.8 hPa | - | - | - | - |
| 1788613515 | 26.67° C | 83% | 1021.6 hPa | - | - | - | - |
| 1788612615 | 26.11° C | 84% | 1021.3 hPa | - | - | - | - |
| 1788611715 | 23.89° C | 92% | 1021.4 hPa | - | - | - | - |
| 1788610824 | 22.22° C | 100% | 1021.4 hPa | - | - | - | - |
| 1788609915 | 25.56° C | 83% | 1021.1 hPa | - | - | - | - |
| 1788609015 | 22.22° C | 100% | 1020.9 hPa | - | - | - | - |
| 1788608115 | 21.11° C | 98% | 1021.2 hPa | - | - | - | - |
| 1788607214 | 21.11° C | 100% | 1021.2 hPa | - | - | - | - |
| 1788606315 | 21.11° C | 92% | 1021.2 hPa | - | - | - | - |
| 1788605414 | 22.78° C | 72% | 1021.4 hPa | - | - | - | - |
| 1788604514 | 24.44° C | 54% | 1021.5 hPa | - | - | - | - |
| 1788603614 | 26.11° C | 50% | 1021.4 hPa | - | - | - | - |
| 1788602714 | 27.22° C | 48% | 1021.4 hPa | - | - | - | - |
| 1788601814 | 26.67° C | 48% | 1021.1 hPa | - | - | - | - |
| 1788600914 | 25.56° C | 52% | 1021.1 hPa | - | - | - | - |
| 1788600014 | 25.56° C | 52% | 1021.5 hPa | - | - | - | - |
| 1788599114 | 25° C | 51% | 1021.4 hPa | - | - | - | - |
| 1788598214 | 25° C | 51% | 1021.3 hPa | - | - | - | - |
| 1788597313 | 25.56° C | 53% | 1021.2 hPa | - | - | - | - |
* Rain since midnight (hover to see other rain measurements)
** Current wind speed in m/s (hover to see current wind gust speed)